Terminal Aerodrome Forecast
Issued by NWS

Home | Current Version | Previous Version | Graphics & Text | Print | Product List | Glossary On
Versions: 1 2 3 4 5 6 7 8 9 10 11 12 13 14
000
FTUS45 KGGW 240520
TAFSDY
TAF
KSDY 240520Z 2406/2506 34005KT 5SM BR VCSH SCT003 OVC007
      TEMPO 2406/2410 2SM BR BKN001 OVC007
     FM241500 31008KT 5SM -SHRA OVC003
     FM250000 32014G24KT P6SM SHRA OVC007=

USA.gov is the U.S. government's official web portal to all federal, state and local government web resources and services.